createdAt,value
2018-11-29T00:02:20.670Z,26.27
2018-11-29T00:04:48.686Z,23.97
2018-11-29T00:07:16.551Z,26.43
2018-11-29T00:09:44.405Z,26.80
2018-11-29T00:12:13.453Z,24.10
2018-11-29T00:14:41.363Z,25.93
2018-11-29T00:17:09.316Z,24.83
2018-11-29T00:19:37.195Z,26.83
2018-11-29T00:22:05.212Z,24.80
2018-11-29T00:24:33.125Z,23.20
2018-11-29T00:27:01.008Z,28.60
2018-11-29T00:29:28.841Z,25.00
2018-11-29T00:31:56.737Z,28.20
2018-11-29T00:34:24.595Z,21.70
2018-11-29T00:36:52.572Z,23.37
2018-11-29T00:39:20.477Z,25.77
2018-11-29T00:41:48.361Z,23.93
2018-11-29T00:44:16.249Z,26.87
2018-11-29T00:46:44.152Z,22.93
2018-11-29T00:49:12.051Z,25.33
2018-11-29T00:51:39.940Z,23.60
2018-11-29T00:54:07.829Z,28.53
2018-11-29T00:56:35.722Z,25.50
2018-11-29T00:59:03.646Z,26.10
2018-11-29T01:01:31.529Z,25.67
2018-11-29T01:03:59.426Z,22.97
2018-11-29T01:06:27.273Z,26.97
2018-11-29T01:08:55.551Z,24.93
2018-11-29T01:11:23.435Z,22.23
2018-11-29T01:13:51.359Z,20.50
2018-11-29T01:16:19.290Z,21.77
2018-11-29T01:18:47.190Z,25.17
2018-11-29T01:21:15.110Z,25.00
2018-11-29T01:23:43.034Z,22.00
2018-11-29T01:26:10.976Z,24.43
2018-11-29T01:28:38.842Z,23.17
2018-11-29T01:31:06.748Z,23.40
2018-11-29T01:33:34.640Z,27.47
2018-11-29T01:36:02.486Z,24.97
2018-11-29T01:38:30.337Z,24.30
2018-11-29T01:40:58.225Z,21.57
2018-11-29T01:43:26.139Z,22.47
2018-11-29T01:45:54.023Z,23.50
2018-11-29T01:48:22.031Z,23.60
2018-11-29T01:50:49.956Z,23.60
2018-11-29T01:53:17.805Z,26.67
2018-11-29T01:55:45.721Z,23.67
2018-11-29T01:58:13.611Z,23.67
2018-11-29T02:00:41.523Z,27.67
2018-11-29T02:03:09.403Z,26.27
2018-11-29T02:05:37.332Z,24.57
2018-11-29T02:08:05.207Z,23.20
2018-11-29T02:10:38.797Z,25.77
2018-11-29T02:13:06.735Z,23.57
2018-11-29T02:15:34.702Z,25.90
2018-11-29T02:18:02.639Z,26.07
2018-11-29T02:20:30.554Z,25.67
2018-11-29T02:22:58.461Z,24.97
2018-11-29T02:25:26.388Z,26.47
2018-11-29T02:27:54.331Z,25.10
2018-11-29T02:30:22.789Z,26.60
2018-11-29T02:32:51.147Z,25.17
2018-11-29T02:35:19.091Z,24.87
2018-11-29T02:37:47.045Z,23.33
2018-11-29T02:40:16.653Z,26.20
2018-11-29T02:42:44.833Z,26.03
2018-11-29T02:45:15.131Z,27.03
2018-11-29T02:47:43.089Z,26.20
2018-11-29T02:50:11.478Z,27.27
2018-11-29T02:52:39.360Z,28.40
2018-11-29T02:55:08.329Z,23.00
2018-11-29T02:57:36.307Z,24.60
2018-11-29T03:00:06.764Z,25.07
2018-11-29T03:02:34.638Z,28.47
2018-11-29T03:05:02.577Z,25.73
2018-11-29T03:07:30.407Z,25.20
2018-11-29T03:09:58.405Z,26.30
2018-11-29T03:12:26.348Z,32.43
2018-11-29T03:14:54.264Z,26.00
2018-11-29T03:17:22.192Z,26.23
2018-11-29T03:19:50.095Z,26.90
2018-11-29T03:22:18.102Z,27.17
2018-11-29T03:24:45.988Z,29.87
2018-11-29T03:27:13.937Z,28.00
2018-11-29T03:29:41.818Z,30.57
2018-11-29T03:32:09.748Z,26.53
2018-11-29T03:34:38.721Z,28.30
2018-11-29T03:37:07.086Z,29.90
2018-11-29T03:39:35.107Z,29.00
2018-11-29T03:42:03.055Z,26.73
2018-11-29T03:44:31.018Z,27.70
2018-11-29T03:46:58.907Z,28.37
2018-11-29T03:49:26.802Z,26.97
2018-11-29T03:51:54.710Z,31.30
2018-11-29T03:54:22.612Z,28.67
2018-11-29T03:56:50.567Z,27.57
2018-11-29T03:59:18.514Z,26.77
2018-11-29T04:01:46.397Z,27.33
2018-11-29T04:04:14.288Z,27.60
2018-11-29T04:06:42.347Z,28.87
2018-11-29T04:09:10.942Z,25.90
2018-11-29T04:11:38.835Z,25.00
2018-11-29T04:14:06.757Z,31.03
2018-11-29T04:16:34.691Z,26.63
2018-11-29T04:19:02.946Z,28.27
2018-11-29T04:21:30.922Z,30.30
2018-11-29T04:23:58.823Z,26.57
2018-11-29T04:26:26.767Z,27.13
2018-11-29T04:28:54.682Z,25.67
2018-11-29T04:31:22.641Z,31.17
2018-11-29T04:33:50.632Z,26.07
2018-11-29T04:36:18.538Z,27.17
2018-11-29T04:38:46.456Z,29.60
2018-11-29T04:41:14.385Z,26.77
2018-11-29T04:43:42.315Z,28.33
2018-11-29T04:47:14.930Z,26.77
2018-11-29T04:49:43.099Z,27.33
2018-11-29T04:52:11.358Z,27.83
2018-11-29T04:54:39.249Z,25.90
2018-11-29T04:57:07.143Z,26.27
2018-11-29T04:59:35.073Z,27.17
2018-11-29T05:02:03.011Z,29.30
2018-11-29T05:04:30.988Z,28.47
2018-11-29T05:06:58.897Z,31.97
2018-11-29T05:09:26.724Z,26.23
2018-11-29T05:11:54.611Z,30.23
2018-11-29T05:14:22.719Z,26.17
2018-11-29T05:16:50.623Z,28.80
2018-11-29T05:19:18.552Z,30.00
2018-11-29T05:21:46.517Z,27.10
2018-11-29T05:24:14.387Z,26.50
2018-11-29T05:26:42.250Z,28.17
2018-11-29T05:29:10.174Z,28.20
2018-11-29T05:31:38.038Z,29.57
2018-11-29T05:34:06.187Z,29.43
2018-11-29T05:36:34.138Z,30.97
2018-11-29T05:39:02.113Z,30.90
2018-11-29T05:41:29.969Z,31.40
2018-11-29T05:43:57.894Z,28.57
2018-11-29T05:46:25.788Z,28.50
2018-11-29T05:48:53.916Z,27.50
2018-11-29T05:51:21.739Z,25.90
2018-11-29T05:53:49.666Z,30.80
2018-11-29T05:56:17.560Z,30.93
2018-11-29T05:58:45.495Z,24.60
2018-11-29T06:01:46.078Z,30.90
2018-11-29T06:04:13.970Z,30.87
2018-11-29T06:06:41.871Z,27.43
2018-11-29T06:09:10.227Z,34.67
2018-11-29T06:11:38.927Z,29.37
2018-11-29T06:14:07.619Z,26.27
2018-11-29T06:16:36.644Z,30.53
2018-11-29T06:19:05.476Z,31.67
2018-11-29T06:21:33.432Z,27.87
2018-11-29T06:24:01.303Z,28.60
2018-11-29T06:26:29.205Z,29.23
2018-11-29T06:28:57.145Z,29.53
2018-11-29T06:31:25.047Z,29.47
2018-11-29T06:33:53.062Z,29.57
2018-11-29T06:36:20.960Z,31.87
2018-11-29T06:38:48.843Z,29.03
2018-11-29T06:41:16.738Z,33.90
2018-11-29T06:43:44.681Z,27.97
2018-11-29T06:46:12.569Z,28.17
2018-11-29T06:48:40.434Z,30.43
2018-11-29T06:51:08.316Z,30.40
2018-11-29T06:53:41.790Z,28.63
2018-11-29T06:56:09.658Z,28.67
2018-11-29T06:58:37.550Z,29.73
2018-11-29T07:01:05.514Z,34.90
2018-11-29T07:03:33.519Z,34.57
2018-11-29T07:06:01.415Z,29.60
2018-11-29T07:08:29.350Z,29.63
2018-11-29T07:10:57.217Z,31.57
2018-11-29T07:13:25.076Z,30.43
2018-11-29T07:15:52.964Z,30.40
2018-11-29T07:18:20.826Z,28.73
2018-11-29T07:21:00.124Z,29.13
2018-11-29T07:23:28.031Z,30.73
2018-11-29T07:25:55.912Z,28.13
2018-11-29T07:28:23.768Z,24.30
2018-11-29T07:30:51.680Z,29.33
2018-11-29T07:33:19.606Z,25.90
2018-11-29T07:35:47.513Z,31.67
2018-11-29T07:38:15.555Z,25.67
2018-11-29T07:40:43.431Z,26.67
2018-11-29T07:43:11.320Z,29.40
2018-11-29T07:45:39.192Z,33.20
2018-11-29T07:48:07.051Z,29.93
2018-11-29T07:50:34.976Z,29.43
2018-11-29T07:53:02.907Z,29.47
2018-11-29T07:55:30.850Z,31.30
2018-11-29T07:57:58.790Z,27.23
2018-11-29T08:00:27.492Z,29.43
2018-11-29T08:02:55.412Z,29.27
2018-11-29T08:05:23.353Z,27.20
2018-11-29T08:07:51.230Z,27.33
2018-11-29T08:10:19.687Z,25.80
2018-11-29T08:12:48.067Z,27.60
2018-11-29T08:15:19.156Z,25.37
2018-11-29T08:17:47.083Z,29.53
2018-11-29T08:20:16.176Z,26.43
2018-11-29T08:22:44.079Z,25.63
2018-11-29T08:25:12.104Z,24.00
2018-11-29T08:27:40.004Z,25.07
2018-11-29T08:30:09.567Z,25.90
2018-11-29T08:32:37.585Z,25.20
2018-11-29T08:35:06.531Z,26.67
2018-11-29T08:37:34.469Z,29.17
2018-11-29T08:40:02.395Z,27.87
2018-11-29T08:42:30.330Z,26.57
2018-11-29T08:44:58.181Z,25.67
2018-11-29T08:47:26.070Z,24.43
2018-11-29T08:49:54.091Z,24.27
2018-11-29T08:52:21.971Z,26.23
2018-11-29T08:54:49.853Z,22.43
2018-11-29T08:57:17.806Z,22.83
2018-11-29T08:59:45.692Z,25.43
2018-11-29T09:02:14.415Z,23.63
2018-11-29T09:04:43.363Z,26.13
2018-11-29T09:07:13.003Z,25.97
2018-11-29T09:09:40.974Z,24.37
2018-11-29T09:12:08.953Z,24.43
2018-11-29T09:14:36.931Z,26.13
2018-11-29T09:17:04.945Z,27.30
2018-11-29T09:19:37.410Z,27.27
2018-11-29T09:22:00.735Z,24.50
2018-11-29T09:24:28.629Z,28.23
2018-11-29T09:26:56.507Z,23.80
2018-11-29T09:29:24.387Z,25.33
2018-11-29T09:31:52.304Z,24.03
2018-11-29T09:34:20.898Z,25.03
2018-11-29T09:36:48.800Z,23.47
2018-11-29T09:39:16.719Z,24.53
2018-11-29T09:41:44.631Z,29.57
2018-11-29T09:44:12.493Z,23.43
2018-11-29T09:46:40.492Z,25.30
2018-11-29T09:49:08.381Z,31.10
2018-11-29T09:51:36.256Z,26.07
2018-11-29T09:54:04.188Z,25.17
2018-11-29T09:56:32.031Z,26.67
2018-11-29T09:58:59.871Z,33.27
2018-11-29T10:01:27.716Z,27.07
2018-11-29T10:03:55.639Z,27.70
2018-11-29T10:06:23.504Z,29.40
2018-11-29T10:08:51.455Z,26.17
2018-11-29T10:11:19.420Z,24.10
2018-11-29T10:13:47.435Z,28.07
2018-11-29T10:16:15.308Z,28.53
2018-11-29T10:18:43.178Z,25.93
2018-11-29T10:21:11.094Z,22.60
2018-11-29T10:23:39.035Z,22.67
2018-11-29T10:26:06.894Z,21.40
2018-11-29T10:28:34.795Z,22.63
2018-11-29T10:31:03.316Z,24.90
2018-11-29T10:33:31.175Z,25.20
2018-11-29T10:35:59.551Z,22.87
2018-11-29T10:38:27.124Z,21.40
2018-11-29T10:40:55.010Z,24.13
2018-11-29T10:43:22.891Z,23.87
2018-11-29T10:45:50.806Z,22.20
2018-11-29T10:48:22.952Z,25.53
2018-11-29T10:50:50.822Z,20.27
2018-11-29T10:53:18.758Z,21.40
2018-11-29T10:55:46.635Z,22.33
2018-11-29T10:58:14.534Z,22.77
2018-11-29T11:00:48.164Z,21.57
2018-11-29T11:03:21.456Z,24.90
2018-11-29T11:05:51.352Z,18.43
2018-11-29T11:08:19.810Z,18.40
2018-11-29T11:10:47.750Z,21.50
2018-11-29T11:13:15.692Z,20.70
2018-11-29T11:15:43.601Z,21.03
2018-11-29T11:18:12.522Z,18.83
2018-11-29T11:20:40.464Z,20.63
2018-11-29T11:23:08.392Z,21.63
2018-11-29T11:25:36.372Z,19.00
2018-11-29T11:28:05.999Z,19.60
2018-11-29T11:30:33.982Z,20.70
2018-11-29T11:33:01.818Z,23.97
2018-11-29T11:35:30.671Z,21.77
2018-11-29T11:37:58.595Z,20.63
2018-11-29T11:40:33.146Z,23.67
2018-11-29T11:43:05.046Z,20.07
2018-11-29T11:45:29.024Z,22.63
2018-11-29T11:48:02.949Z,22.70
2018-11-29T11:50:25.210Z,23.67
2018-11-29T11:52:54.178Z,20.10
2018-11-29T11:55:22.135Z,21.37
2018-11-29T11:57:50.030Z,19.30
2018-11-29T12:00:28.442Z,21.10
2018-11-29T12:03:01.679Z,19.43
2018-11-29T12:05:29.587Z,21.23
2018-11-29T12:07:57.519Z,21.17
2018-11-29T12:10:25.416Z,18.10
2018-11-29T12:12:53.348Z,21.47
2018-11-29T12:15:21.246Z,18.37
2018-11-29T12:17:49.192Z,19.07
2018-11-29T12:20:19.041Z,19.70
2018-11-29T12:22:47.237Z,20.57
2018-11-29T12:25:19.164Z,18.20
2018-11-29T12:27:47.108Z,19.00
2018-11-29T12:30:23.293Z,18.10
2018-11-29T12:32:52.190Z,19.40
2018-11-29T12:35:20.048Z,18.00
2018-11-29T12:37:47.896Z,20.33
2018-11-29T12:40:16.430Z,17.67
2018-11-29T12:42:44.474Z,21.63
2018-11-29T12:45:13.317Z,19.37
2018-11-29T12:47:41.395Z,21.93
2018-11-29T12:50:17.890Z,21.17
2018-11-29T12:52:45.807Z,20.57
2018-11-29T12:55:14.689Z,17.20
2018-11-29T12:57:42.622Z,16.53
2018-11-29T13:00:12.966Z,18.17
2018-11-29T13:02:47.910Z,18.27
2018-11-29T13:05:15.878Z,17.73
2018-11-29T13:07:43.867Z,17.33
2018-11-29T13:10:16.399Z,20.73
2018-11-29T13:12:44.390Z,18.70
2018-11-29T13:15:14.537Z,15.47
2018-11-29T13:17:42.474Z,16.33
2018-11-29T13:20:11.755Z,15.50
2018-11-29T13:22:39.776Z,16.43
2018-11-29T13:25:09.523Z,18.37
2018-11-29T13:27:37.374Z,14.53
2018-11-29T13:30:09.734Z,17.80
2018-11-29T13:32:37.604Z,17.87
2018-11-29T13:35:08.304Z,17.10
2018-11-29T13:37:36.346Z,17.90
2018-11-29T13:40:07.503Z,17.57
2018-11-29T13:42:35.400Z,17.13
2018-11-29T13:45:03.599Z,14.60
2018-11-29T13:47:31.529Z,15.90
2018-11-29T13:49:59.396Z,16.73
2018-11-29T13:52:27.234Z,13.73
2018-11-29T13:54:55.107Z,15.63
2018-11-29T13:57:22.991Z,13.93
2018-11-29T13:59:50.911Z,17.07
2018-11-29T14:02:18.823Z,17.50
2018-11-29T14:04:47.106Z,17.53
2018-11-29T14:07:15.026Z,15.73
2018-11-29T14:09:42.914Z,17.90
2018-11-29T14:12:10.788Z,14.07
2018-11-29T14:14:38.700Z,14.67
2018-11-29T14:17:06.718Z,17.10
2018-11-29T14:19:34.590Z,16.37
2018-11-29T14:22:02.537Z,17.27
2018-11-29T14:24:30.457Z,15.43
2018-11-29T14:26:58.331Z,17.40
2018-11-29T14:29:26.192Z,15.87
2018-11-29T14:31:54.172Z,16.00
2018-11-29T14:34:22.014Z,16.27
2018-11-29T14:36:49.932Z,15.57
2018-11-29T14:39:17.883Z,14.27
2018-11-29T14:41:45.759Z,14.33
2018-11-29T14:44:13.638Z,16.57
2018-11-29T14:46:41.549Z,14.83
2018-11-29T14:49:09.616Z,13.90
2018-11-29T14:51:37.545Z,16.03
2018-11-29T14:54:05.818Z,16.37
2018-11-29T14:56:33.689Z,16.27
2018-11-29T14:59:01.660Z,14.77
2018-11-29T15:01:29.573Z,16.90
2018-11-29T15:03:57.455Z,13.10
2018-11-29T15:06:25.333Z,16.03
2018-11-29T15:08:53.214Z,13.43
2018-11-29T15:11:21.103Z,12.37
2018-11-29T15:13:48.986Z,14.40
2018-11-29T15:16:16.994Z,14.87
2018-11-29T15:18:44.877Z,13.80
2018-11-29T15:21:12.876Z,15.33
2018-11-29T15:23:40.743Z,14.00
2018-11-29T15:26:08.667Z,13.40
2018-11-29T15:28:36.645Z,14.53
2018-11-29T15:31:04.806Z,13.60
2018-11-29T15:33:32.637Z,13.87
2018-11-29T15:36:00.519Z,13.97
2018-11-29T15:38:28.409Z,12.53
2018-11-29T15:40:56.251Z,10.50
2018-11-29T15:43:24.134Z,13.10
2018-11-29T15:45:52.031Z,13.40
2018-11-29T15:48:20.003Z,11.73
2018-11-29T15:50:47.897Z,13.37
2018-11-29T15:53:15.809Z,10.87
2018-11-29T15:55:43.665Z,11.43
2018-11-29T15:58:11.598Z,10.33
2018-11-29T16:00:39.547Z,8.90
2018-11-29T16:03:08.368Z,8.47
2018-11-29T16:05:36.426Z,9.67
2018-11-29T16:08:04.694Z,10.67
2018-11-29T16:10:32.618Z,10.33
2018-11-29T16:13:00.489Z,8.33
2018-11-29T16:15:28.357Z,10.20
2018-11-29T16:17:56.261Z,10.80
2018-11-29T16:20:26.535Z,9.37
2018-11-29T16:22:54.500Z,12.57
2018-11-29T16:25:23.290Z,10.03
2018-11-29T16:27:51.267Z,11.73
2018-11-29T16:30:25.463Z,12.03
2018-11-29T16:32:53.808Z,11.93
2018-11-29T16:35:21.806Z,10.90
2018-11-29T16:37:49.670Z,13.67
2018-11-29T16:40:17.547Z,10.63
2018-11-29T16:42:45.457Z,10.83
2018-11-29T16:45:13.724Z,11.73
2018-11-29T16:47:42.106Z,13.07
2018-11-29T16:50:15.091Z,11.53
2018-11-29T16:52:43.105Z,14.00
2018-11-29T16:55:11.691Z,13.30
2018-11-29T16:57:41.320Z,10.90
2018-11-29T17:00:12.926Z,12.93
2018-11-29T17:02:40.822Z,9.10
2018-11-29T17:05:10.435Z,11.63
2018-11-29T17:07:38.303Z,12.60
2018-11-29T17:10:08.988Z,11.93
2018-11-29T17:12:36.891Z,11.50
2018-11-29T17:15:07.294Z,11.23
2018-11-29T17:17:35.210Z,12.03
2018-11-29T17:20:03.568Z,14.40
2018-11-29T17:22:31.435Z,11.07
2018-11-29T17:24:59.464Z,11.40
2018-11-29T17:27:27.323Z,10.30
2018-11-29T17:29:55.204Z,8.80
2018-11-29T17:32:23.155Z,12.67
2018-11-29T17:34:50.995Z,12.67
2018-11-29T17:37:18.906Z,10.50
2018-11-29T17:39:46.772Z,11.73
2018-11-29T17:42:14.640Z,10.77
2018-11-29T17:44:42.501Z,11.37
2018-11-29T17:47:10.440Z,11.57
2018-11-29T17:49:38.309Z,12.37
2018-11-29T17:52:06.221Z,12.03
2018-11-29T17:54:34.116Z,14.80
2018-11-29T17:57:01.963Z,13.00
2018-11-29T17:59:29.880Z,18.20
2018-11-29T18:01:57.773Z,17.43
2018-11-29T18:04:25.808Z,13.17
2018-11-29T18:06:53.690Z,21.13
2018-11-29T18:09:21.526Z,13.37
2018-11-29T18:11:49.426Z,13.30
2018-11-29T18:14:17.537Z,13.07
2018-11-29T18:16:45.434Z,14.37
2018-11-29T18:19:13.477Z,11.50
2018-11-29T18:21:41.317Z,13.37
2018-11-29T18:24:09.197Z,12.37
2018-11-29T18:26:37.083Z,13.57
2018-11-29T18:29:05.494Z,12.83
2018-11-29T18:31:33.514Z,9.93
2018-11-29T18:34:01.375Z,12.87
2018-11-29T18:36:29.247Z,10.27
2018-11-29T18:38:57.160Z,12.27
2018-11-29T18:41:25.039Z,10.27
2018-11-29T18:43:52.912Z,12.47
2018-11-29T18:46:20.798Z,11.33
2018-11-29T18:48:48.693Z,12.07
2018-11-29T18:51:16.563Z,12.23
2018-11-29T18:53:44.438Z,12.13
2018-11-29T18:56:12.342Z,12.60
2018-11-29T18:58:40.209Z,15.10
2018-11-29T19:01:08.125Z,14.93
2018-11-29T19:03:35.974Z,12.27
2018-11-29T19:06:04.055Z,13.83
2018-11-29T19:08:31.944Z,14.87
2018-11-29T19:10:59.837Z,15.53
2018-11-29T19:13:27.727Z,15.63
2018-11-29T19:15:55.611Z,15.27
2018-11-29T19:18:23.531Z,14.93
2018-11-29T19:20:51.402Z,10.23
2018-11-29T19:23:19.278Z,11.80
2018-11-29T19:25:47.143Z,10.23
2018-11-29T19:28:15.046Z,10.27
2018-11-29T19:30:42.875Z,11.80
2018-11-29T19:33:17.395Z,11.47
2018-11-29T19:35:44.044Z,11.43
2018-11-29T19:38:11.982Z,11.60
2018-11-29T19:40:39.984Z,11.73
2018-11-29T19:43:14.809Z,9.83
2018-11-29T19:45:42.750Z,10.63
2018-11-29T19:48:10.919Z,11.10
2018-11-29T19:50:38.925Z,12.27
2018-11-29T19:53:26.109Z,10.20
2018-11-29T19:55:56.578Z,10.80
2018-11-29T19:58:24.430Z,11.10
2018-11-29T20:00:52.300Z,11.73
2018-11-29T20:03:20.205Z,10.13
2018-11-29T20:05:48.075Z,12.03
2018-11-29T20:08:16.123Z,10.13
2018-11-29T20:10:44.044Z,10.67
2018-11-29T20:13:13.177Z,10.37
2018-11-29T20:15:42.725Z,10.17
2018-11-29T20:18:11.831Z,10.70
2018-11-29T20:20:39.766Z,11.53
2018-11-29T20:23:08.882Z,9.87
2018-11-29T20:25:36.908Z,11.23
2018-11-29T20:28:05.340Z,8.67
2018-11-29T20:30:33.366Z,10.80
2018-11-29T20:33:01.241Z,9.90
2018-11-29T20:35:29.085Z,11.13
2018-11-29T20:37:56.997Z,10.03
2018-11-29T20:40:27.854Z,9.40
2018-11-29T20:42:57.006Z,10.57
2018-11-29T20:45:28.175Z,10.57
2018-11-29T20:47:56.064Z,9.17
2018-11-29T20:50:25.642Z,9.23
2018-11-29T20:52:54.581Z,10.87
2018-11-29T20:55:24.971Z,11.50
2018-11-29T20:57:52.884Z,14.17
2018-11-29T21:00:20.778Z,9.97
2018-11-29T21:02:48.688Z,11.07
2018-11-29T21:05:17.627Z,8.93
2018-11-29T21:07:46.914Z,13.23
2018-11-29T21:10:19.096Z,12.30
2018-11-29T21:12:47.117Z,9.40
2018-11-29T21:15:15.062Z,9.73
2018-11-29T21:17:42.971Z,10.80
2018-11-29T21:20:12.136Z,11.07
2018-11-29T21:22:40.361Z,9.77
2018-11-29T21:25:10.162Z,9.33
2018-11-29T21:27:38.075Z,10.33
2018-11-29T21:30:09.701Z,9.70
2018-11-29T21:32:37.556Z,9.73
2018-11-29T21:35:05.606Z,10.53
2018-11-29T21:37:33.489Z,10.30
2018-11-29T21:40:01.435Z,10.87
2018-11-29T21:42:29.280Z,10.20
2018-11-29T21:44:57.189Z,10.57
2018-11-29T21:47:25.022Z,10.17
2018-11-29T21:49:52.917Z,10.07
2018-11-29T21:52:20.771Z,9.73
2018-11-29T21:54:48.664Z,10.33
2018-11-29T21:57:16.582Z,11.57
2018-11-29T21:59:44.475Z,13.57
2018-11-29T22:02:12.389Z,8.93
2018-11-29T22:04:40.324Z,10.27
2018-11-29T22:07:08.255Z,10.83
2018-11-29T22:09:36.111Z,11.67
2018-11-29T22:12:04.017Z,10.10
2018-11-29T22:14:32.013Z,11.47
2018-11-29T22:16:59.838Z,12.10
2018-11-29T22:19:27.724Z,11.60
2018-11-29T22:21:55.674Z,12.60
2018-11-29T22:24:23.513Z,11.67
2018-11-29T22:26:51.539Z,14.90
2018-11-29T22:29:19.400Z,13.40
2018-11-29T22:31:47.211Z,9.60
2018-11-29T22:34:15.103Z,11.97
2018-11-29T22:36:43.021Z,15.70
2018-11-29T22:39:10.883Z,12.63
2018-11-29T22:41:38.768Z,10.20
2018-11-29T22:44:06.738Z,9.77
2018-11-29T22:46:34.635Z,12.97
2018-11-29T22:49:02.485Z,12.43
2018-11-29T22:51:30.397Z,12.67
2018-11-29T22:53:58.313Z,15.37
2018-11-29T22:56:26.231Z,10.10
2018-11-29T22:58:54.085Z,11.50
2018-11-29T23:01:26.607Z,12.53
2018-11-29T23:03:54.776Z,12.03
2018-11-29T23:06:22.715Z,11.23
2018-11-29T23:08:50.605Z,13.73
2018-11-29T23:11:18.517Z,10.17
2018-11-29T23:13:46.355Z,14.37
2018-11-29T23:16:14.267Z,11.73
2018-11-29T23:18:42.216Z,11.93
2018-11-29T23:21:10.211Z,11.30
2018-11-29T23:23:38.038Z,12.57
2018-11-29T23:26:06.495Z,11.63
2018-11-29T23:28:34.413Z,9.30
2018-11-29T23:31:02.354Z,10.33
2018-11-29T23:33:30.259Z,11.67
2018-11-29T23:35:58.150Z,9.70
2018-11-29T23:38:26.067Z,11.93
2018-11-29T23:40:53.970Z,9.70
2018-11-29T23:43:21.842Z,10.60
2018-11-29T23:45:49.765Z,13.30
2018-11-29T23:48:17.609Z,9.83
2018-11-29T23:50:45.548Z,9.97
2018-11-29T23:53:13.404Z,11.90
2018-11-29T23:55:41.308Z,10.03
2018-11-29T23:58:09.149Z,8.03
